createdAt,value
2018-08-30T06:16:34.574Z,16.43
2018-08-30T06:19:03.923Z,17.13
2018-08-30T06:21:32.105Z,18.03
2018-08-30T06:24:00.315Z,17.97
2018-08-30T06:26:28.505Z,18.33
2018-08-30T06:28:56.704Z,18.30
2018-08-30T06:31:24.925Z,19.00
2018-08-30T06:33:53.970Z,19.10
2018-08-30T06:36:22.231Z,18.30
2018-08-30T06:38:50.587Z,19.83
2018-08-30T06:41:18.688Z,19.43
2018-08-30T06:43:47.580Z,20.80
2018-08-30T06:46:15.736Z,21.30
2018-08-30T06:48:44.087Z,21.70
2018-08-30T06:51:12.206Z,22.27
2018-08-30T06:53:40.455Z,22.13
2018-08-30T06:56:08.629Z,21.73
2018-08-30T06:58:36.989Z,22.67
2018-08-30T07:01:05.114Z,22.17
2018-08-30T07:03:33.310Z,24.00
2018-08-30T07:06:01.483Z,22.80
2018-08-30T07:08:29.656Z,23.00
2018-08-30T07:10:57.828Z,24.93
2018-08-30T07:13:28.570Z,24.27
2018-08-30T07:15:59.536Z,24.63
2018-08-30T07:18:29.023Z,23.97
2018-08-30T07:20:57.189Z,23.80
2018-08-30T07:23:25.931Z,24.47
2018-08-30T07:25:54.162Z,23.37
2018-08-30T07:28:22.792Z,25.13
2018-08-30T07:30:51.906Z,25.63
2018-08-30T07:33:20.083Z,26.17
2018-08-30T07:35:49.228Z,24.63
2018-08-30T07:38:18.451Z,25.03
2018-08-30T07:40:47.185Z,24.50
2018-08-30T07:43:15.372Z,24.90
2018-08-30T07:45:43.767Z,24.90
2018-08-30T07:48:11.964Z,24.73
2018-08-30T07:50:40.136Z,24.67
2018-08-30T07:53:08.319Z,24.93
2018-08-30T07:55:37.600Z,24.13
2018-08-30T07:58:05.807Z,23.73
2018-08-30T08:00:33.966Z,27.60
2018-08-30T08:03:02.198Z,22.67
2018-08-30T08:05:30.363Z,24.10
2018-08-30T08:07:58.530Z,23.83
2018-08-30T08:10:26.723Z,22.17
2018-08-30T08:12:54.883Z,22.47
2018-08-30T08:15:23.062Z,22.93
2018-08-30T08:17:51.263Z,22.20
2018-08-30T08:20:19.457Z,23.07
2018-08-30T08:22:47.655Z,21.53
2018-08-30T08:25:15.877Z,22.07
2018-08-30T08:27:44.310Z,21.70
2018-08-30T08:30:12.506Z,21.03
2018-08-30T08:32:40.693Z,21.53
2018-08-30T08:35:09.055Z,19.87
2018-08-30T08:37:40.236Z,19.50
2018-08-30T08:40:08.407Z,19.20
2018-08-30T08:42:36.601Z,19.37
2018-08-30T08:45:05.207Z,19.83
2018-08-30T08:47:35.387Z,19.27
2018-08-30T08:50:03.672Z,19.23
2018-08-30T08:52:31.897Z,18.80
2018-08-30T08:55:00.078Z,18.93
2018-08-30T08:57:29.185Z,18.13
2018-08-30T08:59:57.374Z,18.27
2018-08-30T09:02:25.553Z,18.23
2018-08-30T09:04:53.750Z,19.53
2018-08-30T09:07:22.060Z,18.57
2018-08-30T09:09:50.219Z,18.50
2018-08-30T09:12:18.394Z,17.47
2018-08-30T09:14:46.648Z,17.63
2018-08-30T09:17:14.826Z,17.37
2018-08-30T09:19:43.024Z,18.87
2018-08-30T09:22:11.346Z,19.03
2018-08-30T09:24:39.563Z,17.53
2018-08-30T09:27:08.701Z,18.03
2018-08-30T09:29:36.872Z,18.87
2018-08-30T09:32:05.335Z,18.33
2018-08-30T09:34:36.418Z,17.20
2018-08-30T09:37:04.629Z,16.73
2018-08-30T09:39:32.807Z,15.60
2018-08-30T09:42:00.999Z,15.37
2018-08-30T09:44:29.213Z,16.33
2018-08-30T09:46:57.419Z,15.53
2018-08-30T09:49:25.743Z,15.27
2018-08-30T09:51:53.827Z,15.10
2018-08-30T09:54:22.050Z,15.87
2018-08-30T09:56:50.348Z,14.43
2018-08-30T09:59:19.498Z,16.53
2018-08-30T10:01:50.256Z,14.70
2018-08-30T10:04:19.512Z,15.50
2018-08-30T10:06:47.684Z,14.93
2018-08-30T10:09:15.898Z,13.07
2018-08-30T10:11:44.117Z,13.73
2018-08-30T10:14:12.283Z,14.23
2018-08-30T10:16:40.483Z,12.33
2018-08-30T10:19:08.701Z,12.83
2018-08-30T10:21:36.960Z,12.67
2018-08-30T10:24:05.143Z,12.87
2018-08-30T10:26:33.334Z,13.00
2018-08-30T10:29:02.434Z,12.10
2018-08-30T10:31:31.048Z,13.37
2018-08-30T10:33:59.193Z,13.53
2018-08-30T10:36:27.415Z,14.53
2018-08-30T10:38:55.638Z,13.47
2018-08-30T10:41:23.827Z,13.43
2018-08-30T10:43:52.049Z,13.40
2018-08-30T10:46:20.780Z,14.70
2018-08-30T10:48:51.328Z,14.10
2018-08-30T10:51:19.514Z,12.90
2018-08-30T10:53:47.727Z,12.87
2018-08-30T10:56:15.973Z,12.40
2018-08-30T10:58:44.198Z,12.20
2018-08-30T11:01:12.435Z,11.27
2018-08-30T11:03:41.439Z,11.97
2018-08-30T11:06:09.638Z,11.07
2018-08-30T11:08:38.819Z,10.70
2018-08-30T11:11:07.040Z,11.50
2018-08-30T11:13:35.362Z,12.33
2018-08-30T11:16:03.435Z,13.10
2018-08-30T11:18:31.623Z,12.87
2018-08-30T11:20:59.803Z,12.60
2018-08-30T11:23:27.991Z,11.83
2018-08-30T11:25:56.162Z,11.37
2018-08-30T11:28:24.330Z,12.03
2018-08-30T11:30:52.570Z,12.57
2018-08-30T11:33:20.800Z,11.10
2018-08-30T11:35:49.029Z,12.13
2018-08-30T11:38:18.301Z,12.13
2018-08-30T11:40:46.534Z,11.30
2018-08-30T11:43:14.831Z,11.83
2018-08-30T11:45:42.958Z,11.40
2018-08-30T11:48:11.199Z,10.13
2018-08-30T11:50:39.417Z,10.13
2018-08-30T11:53:07.600Z,9.90
2018-08-30T11:55:35.803Z,8.83
2018-08-30T11:58:04.004Z,10.00
2018-08-30T12:00:32.251Z,8.80
2018-08-30T12:03:00.722Z,9.03
2018-08-30T12:05:28.897Z,8.07
2018-08-30T12:07:57.910Z,8.17
2018-08-30T12:10:27.006Z,8.10
2018-08-30T12:12:55.121Z,7.43
2018-08-30T12:15:23.661Z,7.90
2018-08-30T12:17:51.883Z,7.20
2018-08-30T12:20:20.098Z,7.63
2018-08-30T12:22:49.188Z,7.07
2018-08-30T12:25:17.392Z,7.20
2018-08-30T12:27:45.617Z,6.80
2018-08-30T12:30:13.935Z,6.80
2018-08-30T12:32:42.148Z,7.40
2018-08-30T12:35:10.405Z,7.23
2018-08-30T12:37:38.600Z,7.27
2018-08-30T12:40:06.908Z,7.37
2018-08-30T12:42:35.079Z,6.60
2018-08-30T12:45:05.520Z,7.70
2018-08-30T12:47:34.066Z,6.50
2018-08-30T12:50:02.352Z,6.63
2018-08-30T12:52:31.489Z,6.20
2018-08-30T12:54:59.773Z,5.77
2018-08-30T12:57:29.229Z,7.33
2018-08-30T12:59:57.487Z,7.17
2018-08-30T13:02:26.120Z,7.17
2018-08-30T13:04:55.150Z,6.73
2018-08-30T13:07:24.172Z,6.47
2018-08-30T13:09:52.616Z,6.70
2018-08-30T13:12:20.894Z,7.03
2018-08-30T13:14:49.061Z,6.40
2018-08-30T13:17:17.488Z,5.77
2018-08-30T13:19:48.577Z,5.47
2018-08-30T13:22:17.131Z,5.10
2018-08-30T13:24:45.355Z,4.37
2018-08-30T13:27:13.468Z,4.70
2018-08-30T13:29:41.668Z,4.57
2018-08-30T13:32:10.010Z,4.00
2018-08-30T13:34:38.037Z,4.07
2018-08-30T13:37:06.641Z,5.60
2018-08-30T13:39:34.612Z,4.60
2018-08-30T13:42:03.081Z,4.40
2018-08-30T13:44:30.956Z,4.40
2018-08-30T13:47:00.098Z,5.07
2018-08-30T13:49:27.988Z,4.40
2018-08-30T13:51:56.324Z,4.00
2018-08-30T13:54:24.878Z,4.73
2018-08-30T13:56:53.083Z,4.67
2018-08-30T13:59:21.446Z,5.10
2018-08-30T14:01:49.517Z,5.10
2018-08-30T14:04:17.354Z,5.20
2018-08-30T14:06:46.277Z,4.90
2018-08-30T14:09:14.606Z,4.87
2018-08-30T14:11:43.697Z,4.40
2018-08-30T14:14:11.955Z,5.13
2018-08-30T14:16:39.827Z,5.10
2018-08-30T14:19:08.399Z,5.40
2018-08-30T14:21:36.541Z,5.50
2018-08-30T14:24:05.517Z,5.07
2018-08-30T14:26:33.941Z,5.47
2018-08-30T14:29:02.381Z,5.60
2018-08-30T14:31:30.879Z,5.40
2018-08-30T14:33:59.412Z,5.60
2018-08-30T14:36:27.637Z,4.90
2018-08-30T14:38:56.152Z,4.80
2018-08-30T14:41:26.320Z,4.37
2018-08-30T14:43:54.474Z,4.53
2018-08-30T14:46:22.686Z,4.23
2018-08-30T14:48:53.905Z,4.27
2018-08-30T14:51:24.106Z,4.17
2018-08-30T14:53:52.944Z,3.53
2018-08-30T14:56:21.145Z,3.20
2018-08-30T14:58:49.810Z,3.70
2018-08-30T15:01:18.019Z,3.00
2018-08-30T15:03:46.322Z,2.77
2018-08-30T15:06:14.452Z,3.53
2018-08-30T15:08:42.763Z,3.23
2018-08-30T15:11:11.968Z,3.00
2018-08-30T15:13:39.957Z,2.90
2018-08-30T15:16:08.453Z,2.87
2018-08-30T15:18:36.769Z,2.93
2018-08-30T15:21:05.952Z,3.33
2018-08-30T15:23:35.064Z,2.80
2018-08-30T15:26:03.054Z,2.90
2018-08-30T15:28:32.282Z,3.13
2018-08-30T15:31:01.696Z,2.90
2018-08-30T15:33:29.911Z,3.03
2018-08-30T15:35:58.268Z,3.30
2018-08-30T15:38:26.450Z,2.73
2018-08-30T15:40:54.662Z,2.80
2018-08-30T15:43:22.850Z,2.50
2018-08-30T15:45:51.130Z,3.13
2018-08-30T15:48:19.457Z,2.57
2018-08-30T15:50:47.473Z,4.23
2018-08-30T15:53:15.801Z,2.63
2018-08-30T15:55:43.916Z,2.37
2018-08-30T15:58:13.490Z,2.30
2018-08-30T16:00:41.671Z,2.20
2018-08-30T16:03:09.854Z,2.57
2018-08-30T16:05:38.001Z,2.53
2018-08-30T16:08:06.194Z,2.80
2018-08-30T16:10:34.386Z,2.20
2018-08-30T16:13:02.579Z,2.50
2018-08-30T16:15:30.760Z,2.40
2018-08-30T16:17:58.953Z,2.23
2018-08-30T16:20:27.150Z,2.30
2018-08-30T16:23:05.087Z,2.20
2018-08-30T16:25:33.719Z,2.10
2018-08-30T16:28:02.969Z,2.03
2018-08-30T16:30:31.238Z,2.40
2018-08-30T16:32:59.405Z,2.20
2018-08-30T16:35:27.693Z,2.00
2018-08-30T16:37:56.136Z,2.07
2018-08-30T16:40:24.316Z,2.20
2018-08-30T16:42:54.494Z,2.40
2018-08-30T16:45:22.691Z,2.17
2018-08-30T16:47:50.906Z,2.57
2018-08-30T16:50:23.143Z,2.47
2018-08-30T16:52:51.836Z,2.30
2018-08-30T16:55:20.307Z,2.40
2018-08-30T16:57:48.496Z,2.20
2018-08-30T17:00:16.659Z,2.50
2018-08-30T17:02:45.908Z,2.90
2018-08-30T17:05:14.378Z,2.70
2018-08-30T17:07:42.775Z,2.30
2018-08-30T17:22:07.544Z,2.10
2018-08-30T17:24:35.737Z,2.17
2018-08-30T17:28:41.648Z,2.03
2018-08-30T17:40:38.313Z,1.80
2018-08-30T18:57:24.713Z,2.13
2018-08-30T19:12:55.133Z,2.40
2018-08-30T19:15:29.687Z,3.20
2018-08-30T19:18:04.330Z,3.37
2018-08-30T19:20:32.953Z,3.40
2018-08-30T19:23:01.111Z,2.87
2018-08-30T19:25:30.095Z,3.43
2018-08-30T19:28:12.726Z,2.93
2018-08-30T19:30:40.936Z,3.13
2018-08-30T19:33:09.127Z,3.00
2018-08-30T19:35:42.765Z,3.20
2018-08-30T19:38:13.001Z,3.00
2018-08-30T19:40:50.363Z,2.80
2018-08-30T19:46:28.477Z,2.87
2018-08-30T19:48:58.856Z,2.80
2018-08-30T21:19:12.917Z,3.23
2018-08-30T21:21:42.891Z,2.73
2018-08-30T21:24:24.438Z,2.70
2018-08-30T21:26:54.861Z,2.67
2018-08-30T21:31:50.567Z,3.00
2018-08-30T21:34:20.591Z,2.97
2018-08-30T21:39:17.739Z,2.27
2018-08-30T21:41:57.317Z,2.80
2018-08-30T21:44:26.626Z,2.90
2018-08-30T21:46:55.276Z,3.03
2018-08-30T21:49:24.105Z,3.33
2018-08-30T21:51:52.990Z,2.73
2018-08-30T21:54:23.711Z,2.70
2018-08-30T22:14:01.625Z,2.27
2018-08-30T22:16:29.811Z,2.40
2018-08-30T22:27:03.612Z,2.30
2018-08-30T22:29:32.788Z,2.40
2018-08-30T22:32:01.516Z,2.50
2018-08-30T22:34:30.124Z,2.57
2018-08-30T22:37:01.344Z,2.27
2018-08-30T22:39:30.791Z,2.63
2018-08-30T22:41:59.950Z,2.50
2018-08-30T22:44:31.256Z,2.40
2018-08-30T22:47:00.360Z,2.43
2018-08-30T22:49:30.466Z,2.60
2018-08-30T22:55:18.142Z,2.50
2018-08-30T22:58:01.661Z,2.80
2018-08-30T23:00:30.240Z,2.33
